sensor_id;sensor_type;location;lat;lon;timestamp;P1;durP1;ratioP1;P2;durP2;ratioP2
55300;SDS011;58302;51.446;-2.000;2023-06-22T00:01:58;15.13;;;9.88;;
55300;SDS011;58302;51.446;-2.000;2023-06-22T00:04:25;15.73;;;9.10;;
55300;SDS011;58302;51.446;-2.000;2023-06-22T00:06:51;18.95;;;9.65;;
55300;SDS011;58302;51.446;-2.000;2023-06-22T00:09:17;15.68;;;9.63;;
55300;SDS011;58302;51.446;-2.000;2023-06-22T00:11:43;16.52;;;9.63;;
55300;SDS011;58302;51.446;-2.000;2023-06-22T00:14:09;16.02;;;10.43;;
55300;SDS011;58302;51.446;-2.000;2023-06-22T00:16:35;19.33;;;10.32;;
55300;SDS011;58302;51.446;-2.000;2023-06-22T00:19:01;19.55;;;11.00;;
55300;SDS011;58302;51.446;-2.000;2023-06-22T00:21:28;15.68;;;10.35;;
55300;SDS011;58302;51.446;-2.000;2023-06-22T00:23:54;21.88;;;10.68;;
55300;SDS011;58302;51.446;-2.000;2023-06-22T00:26:21;20.58;;;10.18;;
55300;SDS011;58302;51.446;-2.000;2023-06-22T00:28:47;18.63;;;11.07;;
55300;SDS011;58302;51.446;-2.000;2023-06-22T00:31:13;19.65;;;11.18;;
55300;SDS011;58302;51.446;-2.000;2023-06-22T00:33:39;23.65;;;11.02;;
55300;SDS011;58302;51.446;-2.000;2023-06-22T00:36:05;20.98;;;10.93;;
55300;SDS011;58302;51.446;-2.000;2023-06-22T00:38:33;15.82;;;9.88;;
55300;SDS011;58302;51.446;-2.000;2023-06-22T00:40:59;24.17;;;11.68;;
55300;SDS011;58302;51.446;-2.000;2023-06-22T00:43:25;23.50;;;12.02;;
55300;SDS011;58302;51.446;-2.000;2023-06-22T00:45:51;23.38;;;11.48;;
55300;SDS011;58302;51.446;-2.000;2023-06-22T00:48:18;19.50;;;11.55;;
55300;SDS011;58302;51.446;-2.000;2023-06-22T00:50:44;25.58;;;13.23;;
55300;SDS011;58302;51.446;-2.000;2023-06-22T00:53:10;26.67;;;12.38;;
55300;SDS011;58302;51.446;-2.000;2023-06-22T00:55:46;23.00;;;13.18;;
55300;SDS011;58302;51.446;-2.000;2023-06-22T00:58:13;26.30;;;13.30;;
55300;SDS011;58302;51.446;-2.000;2023-06-22T01:00:40;26.33;;;13.77;;
55300;SDS011;58302;51.446;-2.000;2023-06-22T01:03:07;30.17;;;13.35;;
55300;SDS011;58302;51.446;-2.000;2023-06-22T01:05:37;24.77;;;13.32;;
55300;SDS011;58302;51.446;-2.000;2023-06-22T01:11:09;28.50;;;14.40;;
55300;SDS011;58302;51.446;-2.000;2023-06-22T01:14:01;29.40;;;14.15;;
55300;SDS011;58302;51.446;-2.000;2023-06-22T01:16:35;29.83;;;14.60;;
55300;SDS011;58302;51.446;-2.000;2023-06-22T01:19:20;31.67;;;15.38;;
55300;SDS011;58302;51.446;-2.000;2023-06-22T01:21:53;34.05;;;15.90;;
55300;SDS011;58302;51.446;-2.000;2023-06-22T01:24:22;34.42;;;16.50;;
55300;SDS011;58302;51.446;-2.000;2023-06-22T01:29:19;40.25;;;17.15;;
55300;SDS011;58302;51.446;-2.000;2023-06-22T01:31:46;37.95;;;17.38;;
55300;SDS011;58302;51.446;-2.000;2023-06-22T01:34:15;38.83;;;17.02;;
55300;SDS011;58302;51.446;-2.000;2023-06-22T01:36:42;39.78;;;18.95;;
55300;SDS011;58302;51.446;-2.000;2023-06-22T01:39:09;38.40;;;17.20;;
55300;SDS011;58302;51.446;-2.000;2023-06-22T01:41:36;36.20;;;16.65;;
55300;SDS011;58302;51.446;-2.000;2023-06-22T01:44:06;44.67;;;17.50;;
55300;SDS011;58302;51.446;-2.000;2023-06-22T01:46:35;45.35;;;18.83;;
55300;SDS011;58302;51.446;-2.000;2023-06-22T01:49:03;47.97;;;19.63;;
55300;SDS011;58302;51.446;-2.000;2023-06-22T01:51:30;41.05;;;19.10;;
55300;SDS011;58302;51.446;-2.000;2023-06-22T01:53:57;47.78;;;19.38;;
55300;SDS011;58302;51.446;-2.000;2023-06-22T01:56:23;48.50;;;19.05;;
55300;SDS011;58302;51.446;-2.000;2023-06-22T01:59:11;51.67;;;20.13;;
55300;SDS011;58302;51.446;-2.000;2023-06-22T02:01:43;52.13;;;19.08;;
55300;SDS011;58302;51.446;-2.000;2023-06-22T02:04:21;44.85;;;19.48;;
55300;SDS011;58302;51.446;-2.000;2023-06-22T02:06:54;46.88;;;19.58;;
55300;SDS011;58302;51.446;-2.000;2023-06-22T02:09:22;46.72;;;20.08;;
55300;SDS011;58302;51.446;-2.000;2023-06-22T02:11:50;50.28;;;20.95;;
55300;SDS011;58302;51.446;-2.000;2023-06-22T02:14:20;43.63;;;19.95;;
55300;SDS011;58302;51.446;-2.000;2023-06-22T02:16:48;43.17;;;19.58;;
55300;SDS011;58302;51.446;-2.000;2023-06-22T02:19:16;46.67;;;20.20;;
55300;SDS011;58302;51.446;-2.000;2023-06-22T02:21:44;43.63;;;19.85;;
55300;SDS011;58302;51.446;-2.000;2023-06-22T02:24:11;53.53;;;22.98;;
55300;SDS011;58302;51.446;-2.000;2023-06-22T02:26:36;46.53;;;20.55;;
55300;SDS011;58302;51.446;-2.000;2023-06-22T02:29:05;51.78;;;19.90;;
55300;SDS011;58302;51.446;-2.000;2023-06-22T02:31:31;48.53;;;19.95;;
55300;SDS011;58302;51.446;-2.000;2023-06-22T02:33:57;46.42;;;20.30;;
55300;SDS011;58302;51.446;-2.000;2023-06-22T02:36:24;45.65;;;20.13;;
55300;SDS011;58302;51.446;-2.000;2023-06-22T02:38:53;43.80;;;20.35;;
55300;SDS011;58302;51.446;-2.000;2023-06-22T02:41:22;46.95;;;20.10;;
55300;SDS011;58302;51.446;-2.000;2023-06-22T02:43:48;41.90;;;19.52;;
55300;SDS011;58302;51.446;-2.000;2023-06-22T02:48:50;42.50;;;19.63;;
55300;SDS011;58302;51.446;-2.000;2023-06-22T02:51:16;46.20;;;19.95;;
55300;SDS011;58302;51.446;-2.000;2023-06-22T02:53:42;45.33;;;18.90;;
55300;SDS011;58302;51.446;-2.000;2023-06-22T02:56:10;44.90;;;19.65;;
55300;SDS011;58302;51.446;-2.000;2023-06-22T02:58:38;47.17;;;20.70;;
55300;SDS011;58302;51.446;-2.000;2023-06-22T03:01:05;52.60;;;21.73;;
55300;SDS011;58302;51.446;-2.000;2023-06-22T03:03:31;52.65;;;22.55;;
55300;SDS011;58302;51.446;-2.000;2023-06-22T03:05:57;55.25;;;21.50;;
55300;SDS011;58302;51.446;-2.000;2023-06-22T03:08:23;64.78;;;23.70;;
55300;SDS011;58302;51.446;-2.000;2023-06-22T03:10:49;59.10;;;23.65;;
55300;SDS011;58302;51.446;-2.000;2023-06-22T03:13:15;58.03;;;23.27;;
55300;SDS011;58302;51.446;-2.000;2023-06-22T03:15:42;60.70;;;24.15;;
55300;SDS011;58302;51.446;-2.000;2023-06-22T03:18:08;62.78;;;25.88;;
55300;SDS011;58302;51.446;-2.000;2023-06-22T03:20:34;63.35;;;21.80;;
55300;SDS011;58302;51.446;-2.000;2023-06-22T03:23:00;52.30;;;22.13;;
55300;SDS011;58302;51.446;-2.000;2023-06-22T03:25:26;65.65;;;25.67;;
55300;SDS011;58302;51.446;-2.000;2023-06-22T03:27:52;61.03;;;23.90;;
55300;SDS011;58302;51.446;-2.000;2023-06-22T03:30:18;68.80;;;23.92;;
55300;SDS011;58302;51.446;-2.000;2023-06-22T03:32:44;59.17;;;24.05;;
55300;SDS011;58302;51.446;-2.000;2023-06-22T03:35:10;55.92;;;23.70;;
55300;SDS011;58302;51.446;-2.000;2023-06-22T03:37:38;61.90;;;22.88;;
55300;SDS011;58302;51.446;-2.000;2023-06-22T03:40:05;57.72;;;23.65;;
55300;SDS011;58302;51.446;-2.000;2023-06-22T03:42:33;62.80;;;23.73;;
55300;SDS011;58302;51.446;-2.000;2023-06-22T03:45:00;55.65;;;22.77;;
55300;SDS011;58302;51.446;-2.000;2023-06-22T03:47:26;70.78;;;24.23;;
55300;SDS011;58302;51.446;-2.000;2023-06-22T03:49:52;64.07;;;23.27;;
55300;SDS011;58302;51.446;-2.000;2023-06-22T03:52:21;56.72;;;23.25;;
55300;SDS011;58302;51.446;-2.000;2023-06-22T03:54:48;73.88;;;26.60;;
55300;SDS011;58302;51.446;-2.000;2023-06-22T03:57:14;67.63;;;25.92;;
55300;SDS011;58302;51.446;-2.000;2023-06-22T03:59:40;72.03;;;25.90;;
55300;SDS011;58302;51.446;-2.000;2023-06-22T04:02:06;69.57;;;25.30;;
55300;SDS011;58302;51.446;-2.000;2023-06-22T04:04:32;63.67;;;23.40;;
55300;SDS011;58302;51.446;-2.000;2023-06-22T04:06:59;61.97;;;24.48;;
55300;SDS011;58302;51.446;-2.000;2023-06-22T04:09:25;62.72;;;24.13;;
55300;SDS011;58302;51.446;-2.000;2023-06-22T04:11:51;72.10;;;24.08;;
55300;SDS011;58302;51.446;-2.000;2023-06-22T04:14:17;60.40;;;22.73;;
55300;SDS011;58302;51.446;-2.000;2023-06-22T04:16:43;62.72;;;24.58;;
55300;SDS011;58302;51.446;-2.000;2023-06-22T04:19:09;65.07;;;24.95;;
55300;SDS011;58302;51.446;-2.000;2023-06-22T04:21:42;76.50;;;26.75;;
55300;SDS011;58302;51.446;-2.000;2023-06-22T04:24:10;69.22;;;26.33;;
55300;SDS011;58302;51.446;-2.000;2023-06-22T04:26:37;76.13;;;27.52;;
55300;SDS011;58302;51.446;-2.000;2023-06-22T04:29:07;66.80;;;27.15;;
55300;SDS011;58302;51.446;-2.000;2023-06-22T04:31:34;62.60;;;24.33;;
55300;SDS011;58302;51.446;-2.000;2023-06-22T04:34:04;65.47;;;25.23;;
55300;SDS011;58302;51.446;-2.000;2023-06-22T04:36:33;56.35;;;24.25;;
55300;SDS011;58302;51.446;-2.000;2023-06-22T04:39:04;62.05;;;26.48;;
55300;SDS011;58302;51.446;-2.000;2023-06-22T04:41:31;62.53;;;25.13;;
55300;SDS011;58302;51.446;-2.000;2023-06-22T04:44:11;57.50;;;24.20;;
55300;SDS011;58302;51.446;-2.000;2023-06-22T04:46:38;59.75;;;25.40;;
55300;SDS011;58302;51.446;-2.000;2023-06-22T04:49:08;65.55;;;26.17;;
55300;SDS011;58302;51.446;-2.000;2023-06-22T04:51:41;82.35;;;30.33;;
55300;SDS011;58302;51.446;-2.000;2023-06-22T04:54:08;105.20;;;29.83;;
55300;SDS011;58302;51.446;-2.000;2023-06-22T04:56:35;97.38;;;31.15;;
55300;SDS011;58302;51.446;-2.000;2023-06-22T04:59:01;78.20;;;29.05;;
55300;SDS011;58302;51.446;-2.000;2023-06-22T05:01:28;88.15;;;30.27;;
55300;SDS011;58302;51.446;-2.000;2023-06-22T05:03:56;75.80;;;28.38;;
55300;SDS011;58302;51.446;-2.000;2023-06-22T05:06:26;65.07;;;26.17;;
55300;SDS011;58302;51.446;-2.000;2023-06-22T05:08:56;62.42;;;25.50;;
55300;SDS011;58302;51.446;-2.000;2023-06-22T05:11:26;70.22;;;27.83;;
55300;SDS011;58302;51.446;-2.000;2023-06-22T05:13:53;69.43;;;26.02;;
55300;SDS011;58302;51.446;-2.000;2023-06-22T05:16:20;62.53;;;25.80;;
55300;SDS011;58302;51.446;-2.000;2023-06-22T05:18:50;58.50;;;23.60;;
55300;SDS011;58302;51.446;-2.000;2023-06-22T05:21:18;51.40;;;22.67;;
55300;SDS011;58302;51.446;-2.000;2023-06-22T05:23:44;49.35;;;22.60;;
55300;SDS011;58302;51.446;-2.000;2023-06-22T05:26:10;48.13;;;21.63;;
55300;SDS011;58302;51.446;-2.000;2023-06-22T05:28:36;39.88;;;19.60;;
55300;SDS011;58302;51.446;-2.000;2023-06-22T05:31:02;38.88;;;21.10;;
55300;SDS011;58302;51.446;-2.000;2023-06-22T05:33:29;40.35;;;18.92;;
55300;SDS011;58302;51.446;-2.000;2023-06-22T05:35:55;35.38;;;18.08;;
55300;SDS011;58302;51.446;-2.000;2023-06-22T05:38:21;29.20;;;16.10;;
55300;SDS011;58302;51.446;-2.000;2023-06-22T05:40:47;26.25;;;15.98;;
55300;SDS011;58302;51.446;-2.000;2023-06-22T05:43:13;27.38;;;14.38;;
55300;SDS011;58302;51.446;-2.000;2023-06-22T05:45:39;28.35;;;15.43;;
55300;SDS011;58302;51.446;-2.000;2023-06-22T05:48:05;21.67;;;13.65;;
55300;SDS011;58302;51.446;-2.000;2023-06-22T05:50:31;23.55;;;13.90;;
55300;SDS011;58302;51.446;-2.000;2023-06-22T05:52:57;21.15;;;12.95;;
55300;SDS011;58302;51.446;-2.000;2023-06-22T05:55:23;16.85;;;11.30;;
55300;SDS011;58302;51.446;-2.000;2023-06-22T05:57:49;20.67;;;12.00;;
55300;SDS011;58302;51.446;-2.000;2023-06-22T06:00:15;16.13;;;10.75;;
55300;SDS011;58302;51.446;-2.000;2023-06-22T06:02:41;16.30;;;11.20;;
55300;SDS011;58302;51.446;-2.000;2023-06-22T06:05:12;16.02;;;11.02;;
55300;SDS011;58302;51.446;-2.000;2023-06-22T06:07:41;18.27;;;10.35;;
55300;SDS011;58302;51.446;-2.000;2023-06-22T06:10:10;16.38;;;10.85;;
55300;SDS011;58302;51.446;-2.000;2023-06-22T06:12:36;20.20;;;12.18;;
55300;SDS011;58302;51.446;-2.000;2023-06-22T06:15:03;17.05;;;11.15;;
55300;SDS011;58302;51.446;-2.000;2023-06-22T06:17:29;18.08;;;11.93;;
55300;SDS011;58302;51.446;-2.000;2023-06-22T06:19:55;17.98;;;10.63;;
55300;SDS011;58302;51.446;-2.000;2023-06-22T06:22:21;17.65;;;11.15;;
55300;SDS011;58302;51.446;-2.000;2023-06-22T06:24:49;17.40;;;11.20;;
55300;SDS011;58302;51.446;-2.000;2023-06-22T06:27:15;17.08;;;11.15;;
55300;SDS011;58302;51.446;-2.000;2023-06-22T06:29:43;17.45;;;12.02;;
55300;SDS011;58302;51.446;-2.000;2023-06-22T06:32:13;15.85;;;11.32;;
55300;SDS011;58302;51.446;-2.000;2023-06-22T06:34:39;15.60;;;9.98;;
55300;SDS011;58302;51.446;-2.000;2023-06-22T06:37:06;14.57;;;10.00;;
55300;SDS011;58302;51.446;-2.000;2023-06-22T06:39:32;16.33;;;11.23;;
55300;SDS011;58302;51.446;-2.000;2023-06-22T06:41:58;12.50;;;8.80;;
55300;SDS011;58302;51.446;-2.000;2023-06-22T06:44:23;14.38;;;9.63;;
55300;SDS011;58302;51.446;-2.000;2023-06-22T06:46:49;12.52;;;8.13;;
55300;SDS011;58302;51.446;-2.000;2023-06-22T06:49:15;12.30;;;8.65;;
55300;SDS011;58302;51.446;-2.000;2023-06-22T06:51:41;11.95;;;8.27;;
55300;SDS011;58302;51.446;-2.000;2023-06-22T06:54:07;12.52;;;8.35;;
55300;SDS011;58302;51.446;-2.000;2023-06-22T06:56:33;8.85;;;6.75;;
55300;SDS011;58302;51.446;-2.000;2023-06-22T06:58:59;9.73;;;6.88;;
55300;SDS011;58302;51.446;-2.000;2023-06-22T07:01:25;10.85;;;6.90;;
55300;SDS011;58302;51.446;-2.000;2023-06-22T07:03:51;10.75;;;7.63;;
55300;SDS011;58302;51.446;-2.000;2023-06-22T07:06:17;11.00;;;7.18;;
55300;SDS011;58302;51.446;-2.000;2023-06-22T07:08:43;11.68;;;6.75;;
55300;SDS011;58302;51.446;-2.000;2023-06-22T07:11:09;9.82;;;7.20;;
55300;SDS011;58302;51.446;-2.000;2023-06-22T07:13:35;8.45;;;6.70;;
55300;SDS011;58302;51.446;-2.000;2023-06-22T07:16:01;9.05;;;7.47;;
55300;SDS011;58302;51.446;-2.000;2023-06-22T07:18:27;9.55;;;6.65;;
55300;SDS011;58302;51.446;-2.000;2023-06-22T07:20:53;7.30;;;6.00;;
55300;SDS011;58302;51.446;-2.000;2023-06-22T07:23:19;8.30;;;6.18;;
55300;SDS011;58302;51.446;-2.000;2023-06-22T07:25:45;8.05;;;6.80;;
55300;SDS011;58302;51.446;-2.000;2023-06-22T07:28:11;10.52;;;6.75;;
55300;SDS011;58302;51.446;-2.000;2023-06-22T07:30:37;9.57;;;7.00;;
55300;SDS011;58302;51.446;-2.000;2023-06-22T07:33:03;7.95;;;5.63;;
55300;SDS011;58302;51.446;-2.000;2023-06-22T07:35:31;8.73;;;6.18;;
55300;SDS011;58302;51.446;-2.000;2023-06-22T07:37:58;7.15;;;5.68;;
55300;SDS011;58302;51.446;-2.000;2023-06-22T07:40:24;12.68;;;7.07;;
55300;SDS011;58302;51.446;-2.000;2023-06-22T07:42:51;9.00;;;5.90;;
55300;SDS011;58302;51.446;-2.000;2023-06-22T07:45:18;7.47;;;5.97;;
55300;SDS011;58302;51.446;-2.000;2023-06-22T07:47:44;10.27;;;7.40;;
55300;SDS011;58302;51.446;-2.000;2023-06-22T07:50:10;10.20;;;6.75;;
55300;SDS011;58302;51.446;-2.000;2023-06-22T07:52:36;8.00;;;6.45;;
55300;SDS011;58302;51.446;-2.000;2023-06-22T07:55:02;10.10;;;6.35;;
55300;SDS011;58302;51.446;-2.000;2023-06-22T07:57:30;10.02;;;5.88;;
55300;SDS011;58302;51.446;-2.000;2023-06-22T07:59:59;8.57;;;5.82;;
55300;SDS011;58302;51.446;-2.000;2023-06-22T08:02:26;7.43;;;5.47;;
55300;SDS011;58302;51.446;-2.000;2023-06-22T08:04:52;7.15;;;5.75;;
55300;SDS011;58302;51.446;-2.000;2023-06-22T08:07:18;6.43;;;5.40;;
55300;SDS011;58302;51.446;-2.000;2023-06-22T08:09:46;6.72;;;5.75;;
55300;SDS011;58302;51.446;-2.000;2023-06-22T08:12:13;7.90;;;6.47;;
55300;SDS011;58302;51.446;-2.000;2023-06-22T08:14:41;8.18;;;5.85;;
55300;SDS011;58302;51.446;-2.000;2023-06-22T08:17:09;8.63;;;5.80;;
55300;SDS011;58302;51.446;-2.000;2023-06-22T08:19:35;9.05;;;5.70;;
55300;SDS011;58302;51.446;-2.000;2023-06-22T08:22:02;8.52;;;6.40;;
55300;SDS011;58302;51.446;-2.000;2023-06-22T08:24:29;8.30;;;5.28;;
55300;SDS011;58302;51.446;-2.000;2023-06-22T08:34:13;7.22;;;5.00;;
55300;SDS011;58302;51.446;-2.000;2023-06-22T08:36:39;6.60;;;5.93;;
55300;SDS011;58302;51.446;-2.000;2023-06-22T08:39:10;8.38;;;4.53;;
55300;SDS011;58302;51.446;-2.000;2023-06-22T08:41:36;6.85;;;5.38;;
55300;SDS011;58302;51.446;-2.000;2023-06-22T08:44:02;6.10;;;4.38;;
55300;SDS011;58302;51.446;-2.000;2023-06-22T08:46:29;6.43;;;5.22;;
55300;SDS011;58302;51.446;-2.000;2023-06-22T08:48:59;7.03;;;5.75;;
55300;SDS011;58302;51.446;-2.000;2023-06-22T08:51:26;6.10;;;4.40;;
55300;SDS011;58302;51.446;-2.000;2023-06-22T08:53:52;5.00;;;4.50;;
55300;SDS011;58302;51.446;-2.000;2023-06-22T08:56:18;5.60;;;3.85;;
55300;SDS011;58302;51.446;-2.000;2023-06-22T08:58:44;4.72;;;4.10;;
55300;SDS011;58302;51.446;-2.000;2023-06-22T09:01:10;4.55;;;4.10;;
55300;SDS011;58302;51.446;-2.000;2023-06-22T09:03:36;6.45;;;4.65;;
55300;SDS011;58302;51.446;-2.000;2023-06-22T09:06:03;6.50;;;4.80;;
55300;SDS011;58302;51.446;-2.000;2023-06-22T09:08:29;4.40;;;3.88;;
55300;SDS011;58302;51.446;-2.000;2023-06-22T09:10:55;5.30;;;4.05;;
55300;SDS011;58302;51.446;-2.000;2023-06-22T09:13:21;5.90;;;4.28;;
55300;SDS011;58302;51.446;-2.000;2023-06-22T09:15:47;5.10;;;4.13;;
55300;SDS011;58302;51.446;-2.000;2023-06-22T09:18:14;4.88;;;4.07;;
55300;SDS011;58302;51.446;-2.000;2023-06-22T09:20:40;5.03;;;4.03;;
55300;SDS011;58302;51.446;-2.000;2023-06-22T09:23:05;4.43;;;3.95;;
55300;SDS011;58302;51.446;-2.000;2023-06-22T09:25:31;7.30;;;4.30;;
55300;SDS011;58302;51.446;-2.000;2023-06-22T09:27:57;5.32;;;4.00;;
55300;SDS011;58302;51.446;-2.000;2023-06-22T09:30:23;5.25;;;4.10;;
55300;SDS011;58302;51.446;-2.000;2023-06-22T09:32:49;6.90;;;3.60;;
55300;SDS011;58302;51.446;-2.000;2023-06-22T09:35:18;5.65;;;4.43;;
55300;SDS011;58302;51.446;-2.000;2023-06-22T09:37:45;6.28;;;4.70;;
55300;SDS011;58302;51.446;-2.000;2023-06-22T09:40:11;5.35;;;4.35;;
55300;SDS011;58302;51.446;-2.000;2023-06-22T09:42:38;8.18;;;4.80;;
55300;SDS011;58302;51.446;-2.000;2023-06-22T09:45:05;6.05;;;4.47;;
55300;SDS011;58302;51.446;-2.000;2023-06-22T09:47:31;4.50;;;4.10;;
55300;SDS011;58302;51.446;-2.000;2023-06-22T09:49:57;3.72;;;3.35;;
55300;SDS011;58302;51.446;-2.000;2023-06-22T09:52:25;5.40;;;4.47;;
55300;SDS011;58302;51.446;-2.000;2023-06-22T09:54:51;5.95;;;4.03;;
55300;SDS011;58302;51.446;-2.000;2023-06-22T09:57:17;5.95;;;4.15;;
55300;SDS011;58302;51.446;-2.000;2023-06-22T09:59:43;4.22;;;3.33;;
55300;SDS011;58302;51.446;-2.000;2023-06-22T10:02:09;5.57;;;3.25;;
55300;SDS011;58302;51.446;-2.000;2023-06-22T10:04:35;3.78;;;2.30;;
55300;SDS011;58302;51.446;-2.000;2023-06-22T10:07:02;4.68;;;3.40;;
55300;SDS011;58302;51.446;-2.000;2023-06-22T10:09:28;3.65;;;2.60;;
55300;SDS011;58302;51.446;-2.000;2023-06-22T10:11:54;4.43;;;2.60;;
55300;SDS011;58302;51.446;-2.000;2023-06-22T10:14:20;3.10;;;2.40;;
55300;SDS011;58302;51.446;-2.000;2023-06-22T10:16:46;2.85;;;2.30;;
55300;SDS011;58302;51.446;-2.000;2023-06-22T10:19:12;2.90;;;2.70;;
55300;SDS011;58302;51.446;-2.000;2023-06-22T10:21:37;4.57;;;3.10;;
55300;SDS011;58302;51.446;-2.000;2023-06-22T10:24:03;2.78;;;2.55;;
55300;SDS011;58302;51.446;-2.000;2023-06-22T10:26:32;4.03;;;3.08;;
55300;SDS011;58302;51.446;-2.000;2023-06-22T10:28:58;6.45;;;3.15;;
55300;SDS011;58302;51.446;-2.000;2023-06-22T10:31:25;5.18;;;2.95;;
55300;SDS011;58302;51.446;-2.000;2023-06-22T10:33:53;4.10;;;2.92;;
55300;SDS011;58302;51.446;-2.000;2023-06-22T10:36:19;3.40;;;2.70;;
55300;SDS011;58302;51.446;-2.000;2023-06-22T10:38:46;3.90;;;2.92;;
55300;SDS011;58302;51.446;-2.000;2023-06-22T10:41:13;4.13;;;2.85;;
55300;SDS011;58302;51.446;-2.000;2023-06-22T10:43:39;3.15;;;2.30;;
55300;SDS011;58302;51.446;-2.000;2023-06-22T10:46:06;3.22;;;2.75;;
55300;SDS011;58302;51.446;-2.000;2023-06-22T10:48:32;4.40;;;2.67;;
55300;SDS011;58302;51.446;-2.000;2023-06-22T10:50:58;3.17;;;2.38;;
55300;SDS011;58302;51.446;-2.000;2023-06-22T10:53:24;3.30;;;2.65;;
55300;SDS011;58302;51.446;-2.000;2023-06-22T10:55:50;6.45;;;2.67;;
55300;SDS011;58302;51.446;-2.000;2023-06-22T10:58:17;3.67;;;2.50;;
55300;SDS011;58302;51.446;-2.000;2023-06-22T11:00:45;4.75;;;3.38;;
55300;SDS011;58302;51.446;-2.000;2023-06-22T11:03:11;4.78;;;3.38;;
55300;SDS011;58302;51.446;-2.000;2023-06-22T11:05:37;3.90;;;3.38;;
55300;SDS011;58302;51.446;-2.000;2023-06-22T11:08:03;4.90;;;3.70;;
55300;SDS011;58302;51.446;-2.000;2023-06-22T11:10:29;5.72;;;3.38;;
55300;SDS011;58302;51.446;-2.000;2023-06-22T11:12:55;5.45;;;3.55;;
55300;SDS011;58302;51.446;-2.000;2023-06-22T11:15:24;5.63;;;3.50;;
55300;SDS011;58302;51.446;-2.000;2023-06-22T11:17:50;4.45;;;3.47;;
55300;SDS011;58302;51.446;-2.000;2023-06-22T11:20:16;3.42;;;2.72;;
55300;SDS011;58302;51.446;-2.000;2023-06-22T11:22:42;3.67;;;2.88;;
55300;SDS011;58302;51.446;-2.000;2023-06-22T11:25:08;4.22;;;2.85;;
55300;SDS011;58302;51.446;-2.000;2023-06-22T11:27:34;4.18;;;2.72;;
55300;SDS011;58302;51.446;-2.000;2023-06-22T11:30:01;4.38;;;2.50;;
55300;SDS011;58302;51.446;-2.000;2023-06-22T11:32:27;4.05;;;2.92;;
55300;SDS011;58302;51.446;-2.000;2023-06-22T11:34:53;4.18;;;3.50;;
55300;SDS011;58302;51.446;-2.000;2023-06-22T11:37:19;4.18;;;3.00;;
55300;SDS011;58302;51.446;-2.000;2023-06-22T11:39:44;5.40;;;3.65;;
55300;SDS011;58302;51.446;-2.000;2023-06-22T11:42:11;3.92;;;3.40;;
55300;SDS011;58302;51.446;-2.000;2023-06-22T11:44:37;3.47;;;2.67;;
55300;SDS011;58302;51.446;-2.000;2023-06-22T11:47:03;3.50;;;3.08;;
55300;SDS011;58302;51.446;-2.000;2023-06-22T11:49:30;3.67;;;3.10;;
55300;SDS011;58302;51.446;-2.000;2023-06-22T11:51:56;4.20;;;3.50;;
55300;SDS011;58302;51.446;-2.000;2023-06-22T11:54:22;4.63;;;3.58;;
55300;SDS011;58302;51.446;-2.000;2023-06-22T11:56:48;3.72;;;3.10;;
55300;SDS011;58302;51.446;-2.000;2023-06-22T11:59:17;5.03;;;3.40;;
55300;SDS011;58302;51.446;-2.000;2023-06-22T12:01:44;3.17;;;2.85;;
55300;SDS011;58302;51.446;-2.000;2023-06-22T12:04:10;5.18;;;3.25;;
55300;SDS011;58302;51.446;-2.000;2023-06-22T12:06:37;4.90;;;2.90;;
55300;SDS011;58302;51.446;-2.000;2023-06-22T12:09:07;4.47;;;3.88;;
55300;SDS011;58302;51.446;-2.000;2023-06-22T12:11:33;4.32;;;2.95;;
55300;SDS011;58302;51.446;-2.000;2023-06-22T12:13:59;5.15;;;3.70;;
55300;SDS011;58302;51.446;-2.000;2023-06-22T12:16:27;3.35;;;3.00;;
55300;SDS011;58302;51.446;-2.000;2023-06-22T12:18:54;7.40;;;3.10;;
55300;SDS011;58302;51.446;-2.000;2023-06-22T12:21:20;3.83;;;2.58;;
55300;SDS011;58302;51.446;-2.000;2023-06-22T12:23:46;4.15;;;2.90;;
55300;SDS011;58302;51.446;-2.000;2023-06-22T12:26:12;3.10;;;2.30;;
55300;SDS011;58302;51.446;-2.000;2023-06-22T12:28:38;3.72;;;2.55;;
55300;SDS011;58302;51.446;-2.000;2023-06-22T12:31:04;4.32;;;2.72;;
55300;SDS011;58302;51.446;-2.000;2023-06-22T12:33:30;3.28;;;2.90;;
55300;SDS011;58302;51.446;-2.000;2023-06-22T12:35:56;3.28;;;2.67;;
55300;SDS011;58302;51.446;-2.000;2023-06-22T12:38:22;3.00;;;2.63;;
55300;SDS011;58302;51.446;-2.000;2023-06-22T12:40:51;5.38;;;2.50;;
55300;SDS011;58302;51.446;-2.000;2023-06-22T12:43:17;2.72;;;2.33;;
55300;SDS011;58302;51.446;-2.000;2023-06-22T12:45:44;3.45;;;2.63;;
55300;SDS011;58302;51.446;-2.000;2023-06-22T12:48:09;4.28;;;3.42;;
55300;SDS011;58302;51.446;-2.000;2023-06-22T12:50:35;5.18;;;3.00;;
55300;SDS011;58302;51.446;-2.000;2023-06-22T12:53:01;4.75;;;2.97;;
55300;SDS011;58302;51.446;-2.000;2023-06-22T12:55:29;4.80;;;3.05;;
55300;SDS011;58302;51.446;-2.000;2023-06-22T12:57:55;3.97;;;3.00;;
55300;SDS011;58302;51.446;-2.000;2023-06-22T13:00:21;5.13;;;2.67;;
55300;SDS011;58302;51.446;-2.000;2023-06-22T13:02:47;3.58;;;3.17;;
55300;SDS011;58302;51.446;-2.000;2023-06-22T13:05:13;3.55;;;2.88;;
55300;SDS011;58302;51.446;-2.000;2023-06-22T13:07:39;4.35;;;2.60;;
55300;SDS011;58302;51.446;-2.000;2023-06-22T13:10:05;3.72;;;2.90;;
55300;SDS011;58302;51.446;-2.000;2023-06-22T13:12:31;3.28;;;2.53;;
55300;SDS011;58302;51.446;-2.000;2023-06-22T13:14:57;3.50;;;2.95;;
55300;SDS011;58302;51.446;-2.000;2023-06-22T13:17:23;3.67;;;2.65;;
55300;SDS011;58302;51.446;-2.000;2023-06-22T13:19:49;3.08;;;2.70;;
55300;SDS011;58302;51.446;-2.000;2023-06-22T13:22:29;4.07;;;3.38;;
55300;SDS011;58302;51.446;-2.000;2023-06-22T13:25:00;3.40;;;2.20;;
55300;SDS011;58302;51.446;-2.000;2023-06-22T13:27:26;2.72;;;2.50;;
55300;SDS011;58302;51.446;-2.000;2023-06-22T13:29:52;3.45;;;2.35;;
55300;SDS011;58302;51.446;-2.000;2023-06-22T13:32:18;2.88;;;2.53;;
55300;SDS011;58302;51.446;-2.000;2023-06-22T13:34:44;3.55;;;2.85;;
55300;SDS011;58302;51.446;-2.000;2023-06-22T13:37:10;4.40;;;2.60;;
55300;SDS011;58302;51.446;-2.000;2023-06-22T13:39:36;3.67;;;2.53;;
55300;SDS011;58302;51.446;-2.000;2023-06-22T13:42:02;3.65;;;2.10;;
55300;SDS011;58302;51.446;-2.000;2023-06-22T13:44:28;2.92;;;2.55;;
55300;SDS011;58302;51.446;-2.000;2023-06-22T13:46:54;2.78;;;2.58;;
55300;SDS011;58302;51.446;-2.000;2023-06-22T13:49:21;2.38;;;2.17;;
55300;SDS011;58302;51.446;-2.000;2023-06-22T13:51:50;3.50;;;2.60;;
55300;SDS011;58302;51.446;-2.000;2023-06-22T13:54:16;3.85;;;2.80;;
55300;SDS011;58302;51.446;-2.000;2023-06-22T13:56:42;3.03;;;2.72;;
55300;SDS011;58302;51.446;-2.000;2023-06-22T13:59:08;4.63;;;2.70;;
55300;SDS011;58302;51.446;-2.000;2023-06-22T14:01:35;2.88;;;2.53;;
55300;SDS011;58302;51.446;-2.000;2023-06-22T14:04:02;4.05;;;2.30;;
55300;SDS011;58302;51.446;-2.000;2023-06-22T14:06:28;3.40;;;2.38;;
55300;SDS011;58302;51.446;-2.000;2023-06-22T14:08:54;3.72;;;2.40;;
55300;SDS011;58302;51.446;-2.000;2023-06-22T14:11:20;3.15;;;2.47;;
55300;SDS011;58302;51.446;-2.000;2023-06-22T14:13:46;3.13;;;2.47;;
55300;SDS011;58302;51.446;-2.000;2023-06-22T14:16:12;3.15;;;2.42;;
55300;SDS011;58302;51.446;-2.000;2023-06-22T14:18:38;3.60;;;3.03;;
55300;SDS011;58302;51.446;-2.000;2023-06-22T14:21:04;3.10;;;2.50;;
55300;SDS011;58302;51.446;-2.000;2023-06-22T14:23:33;2.97;;;2.67;;
55300;SDS011;58302;51.446;-2.000;2023-06-22T14:25:59;2.83;;;2.22;;
55300;SDS011;58302;51.446;-2.000;2023-06-22T14:28:25;2.53;;;2.17;;
55300;SDS011;58302;51.446;-2.000;2023-06-22T14:30:51;3.75;;;2.30;;
55300;SDS011;58302;51.446;-2.000;2023-06-22T14:33:17;3.38;;;2.67;;
55300;SDS011;58302;51.446;-2.000;2023-06-22T14:35:43;2.83;;;2.45;;
55300;SDS011;58302;51.446;-2.000;2023-06-22T14:38:08;3.05;;;2.40;;